sensor_id;sensor_type;location;lat;lon;timestamp;P1;durP1;ratioP1;P2;durP2;ratioP2
33148;SDS011;19506;51.040;3.856;2023-05-08T09:19:47;22.70;;;10.60;;
33148;SDS011;19506;51.040;3.856;2023-05-08T09:22:13;19.30;;;10.43;;
33148;SDS011;19506;51.040;3.856;2023-05-08T09:24:58;23.70;;;9.65;;
33148;SDS011;19506;51.040;3.856;2023-05-08T09:27:26;24.38;;;10.27;;
33148;SDS011;19506;51.040;3.856;2023-05-08T09:30:13;22.15;;;10.73;;
33148;SDS011;19506;51.040;3.856;2023-05-08T09:32:42;19.90;;;10.43;;
33148;SDS011;19506;51.040;3.856;2023-05-08T09:35:09;21.02;;;10.35;;
33148;SDS011;19506;51.040;3.856;2023-05-08T09:37:39;20.98;;;10.60;;
33148;SDS011;19506;51.040;3.856;2023-05-08T09:40:16;19.95;;;10.98;;
33148;SDS011;19506;51.040;3.856;2023-05-08T09:42:44;20.10;;;10.45;;
33148;SDS011;19506;51.040;3.856;2023-05-08T09:45:10;24.52;;;11.95;;
33148;SDS011;19506;51.040;3.856;2023-05-08T09:47:49;21.92;;;11.15;;
33148;SDS011;19506;51.040;3.856;2023-05-08T09:50:15;22.58;;;10.90;;
33148;SDS011;19506;51.040;3.856;2023-05-08T09:52:44;19.65;;;10.85;;
33148;SDS011;19506;51.040;3.856;2023-05-08T09:55:11;19.15;;;10.38;;
33148;SDS011;19506;51.040;3.856;2023-05-08T09:57:38;20.83;;;9.98;;
33148;SDS011;19506;51.040;3.856;2023-05-08T10:00:15;22.92;;;11.00;;
33148;SDS011;19506;51.040;3.856;2023-05-08T10:02:53;17.70;;;10.05;;
33148;SDS011;19506;51.040;3.856;2023-05-08T10:05:29;20.13;;;9.00;;
33148;SDS011;19506;51.040;3.856;2023-05-08T10:10:45;21.67;;;10.13;;
33148;SDS011;19506;51.040;3.856;2023-05-08T10:13:11;19.85;;;9.88;;
33148;SDS011;19506;51.040;3.856;2023-05-08T10:15:37;19.67;;;9.98;;
33148;SDS011;19506;51.040;3.856;2023-05-08T10:18:06;19.63;;;10.48;;
33148;SDS011;19506;51.040;3.856;2023-05-08T10:20:34;19.83;;;10.18;;
33148;SDS011;19506;51.040;3.856;2023-05-08T10:23:06;20.05;;;9.68;;
33148;SDS011;19506;51.040;3.856;2023-05-08T10:25:35;19.40;;;9.70;;
33148;SDS011;19506;51.040;3.856;2023-05-08T10:28:23;27.58;;;12.05;;
33148;SDS011;19506;51.040;3.856;2023-05-08T10:31:04;22.52;;;9.90;;
33148;SDS011;19506;51.040;3.856;2023-05-08T10:33:32;22.40;;;10.23;;
33148;SDS011;19506;51.040;3.856;2023-05-08T10:35:59;19.35;;;11.05;;
33148;SDS011;19506;51.040;3.856;2023-05-08T10:38:25;24.38;;;10.65;;
33148;SDS011;19506;51.040;3.856;2023-05-08T10:40:54;18.70;;;9.82;;
33148;SDS011;19506;51.040;3.856;2023-05-08T10:43:24;17.77;;;10.20;;
33148;SDS011;19506;51.040;3.856;2023-05-08T10:45:50;15.27;;;8.90;;
33148;SDS011;19506;51.040;3.856;2023-05-08T10:48:29;23.80;;;11.93;;
33148;SDS011;19506;51.040;3.856;2023-05-08T10:51:13;18.27;;;10.40;;
33148;SDS011;19506;51.040;3.856;2023-05-08T10:53:56;17.23;;;8.95;;
33148;SDS011;19506;51.040;3.856;2023-05-08T10:56:29;18.45;;;9.98;;
33148;SDS011;19506;51.040;3.856;2023-05-08T10:58:55;20.65;;;11.15;;
33148;SDS011;19506;51.040;3.856;2023-05-08T11:01:22;19.23;;;10.68;;
33148;SDS011;19506;51.040;3.856;2023-05-08T11:03:49;20.98;;;11.63;;
33148;SDS011;19506;51.040;3.856;2023-05-08T11:06:15;18.80;;;10.48;;
33148;SDS011;19506;51.040;3.856;2023-05-08T11:08:43;16.58;;;9.98;;
33148;SDS011;19506;51.040;3.856;2023-05-08T11:11:23;19.77;;;10.75;;
33148;SDS011;19506;51.040;3.856;2023-05-08T11:13:53;15.48;;;10.18;;
33148;SDS011;19506;51.040;3.856;2023-05-08T11:19:17;20.48;;;10.05;;
33148;SDS011;19506;51.040;3.856;2023-05-08T11:24:35;19.95;;;10.23;;
33148;SDS011;19506;51.040;3.856;2023-05-08T11:27:02;16.30;;;9.70;;
33148;SDS011;19506;51.040;3.856;2023-05-08T11:29:28;20.15;;;10.23;;
33148;SDS011;19506;51.040;3.856;2023-05-08T11:31:54;20.80;;;9.90;;
33148;SDS011;19506;51.040;3.856;2023-05-08T11:34:43;19.80;;;9.80;;
33148;SDS011;19506;51.040;3.856;2023-05-08T11:37:19;20.27;;;9.82;;
33148;SDS011;19506;51.040;3.856;2023-05-08T11:39:46;19.02;;;10.15;;
33148;SDS011;19506;51.040;3.856;2023-05-08T11:45:06;18.08;;;10.43;;
33148;SDS011;19506;51.040;3.856;2023-05-08T11:47:37;19.02;;;10.73;;
33148;SDS011;19506;51.040;3.856;2023-05-08T11:50:08;16.88;;;9.80;;
33148;SDS011;19506;51.040;3.856;2023-05-08T11:52:35;17.13;;;9.85;;
33148;SDS011;19506;51.040;3.856;2023-05-08T11:55:05;14.88;;;9.43;;
33148;SDS011;19506;51.040;3.856;2023-05-08T11:57:32;18.35;;;9.30;;
33148;SDS011;19506;51.040;3.856;2023-05-08T12:00:05;17.05;;;9.75;;
33148;SDS011;19506;51.040;3.856;2023-05-08T12:05:07;16.33;;;9.68;;
33148;SDS011;19506;51.040;3.856;2023-05-08T12:07:46;18.67;;;9.70;;
33148;SDS011;19506;51.040;3.856;2023-05-08T12:10:15;16.75;;;9.60;;
33148;SDS011;19506;51.040;3.856;2023-05-08T12:12:41;15.05;;;8.82;;
33148;SDS011;19506;51.040;3.856;2023-05-08T12:15:08;16.85;;;8.90;;
33148;SDS011;19506;51.040;3.856;2023-05-08T12:17:35;15.10;;;9.38;;
33148;SDS011;19506;51.040;3.856;2023-05-08T12:20:09;16.00;;;9.18;;
33148;SDS011;19506;51.040;3.856;2023-05-08T12:22:39;16.88;;;9.65;;
33148;SDS011;19506;51.040;3.856;2023-05-08T12:25:05;12.20;;;8.45;;
33148;SDS011;19506;51.040;3.856;2023-05-08T12:27:33;18.73;;;10.43;;
33148;SDS011;19506;51.040;3.856;2023-05-08T12:30:09;15.07;;;8.85;;
33148;SDS011;19506;51.040;3.856;2023-05-08T12:32:36;15.20;;;9.13;;
33148;SDS011;19506;51.040;3.856;2023-05-08T12:35:04;13.85;;;8.98;;
33148;SDS011;19506;51.040;3.856;2023-05-08T12:37:34;18.52;;;9.57;;
33148;SDS011;19506;51.040;3.856;2023-05-08T12:40:00;12.43;;;8.85;;
33148;SDS011;19506;51.040;3.856;2023-05-08T12:42:46;12.10;;;8.50;;
33148;SDS011;19506;51.040;3.856;2023-05-08T12:45:20;16.67;;;9.55;;
33148;SDS011;19506;51.040;3.856;2023-05-08T12:47:48;14.95;;;9.65;;
33148;SDS011;19506;51.040;3.856;2023-05-08T12:50:15;13.63;;;9.30;;
33148;SDS011;19506;51.040;3.856;2023-05-08T12:52:42;13.25;;;8.68;;
33148;SDS011;19506;51.040;3.856;2023-05-08T12:55:30;15.90;;;9.98;;
33148;SDS011;19506;51.040;3.856;2023-05-08T13:00:37;14.27;;;9.32;;
33148;SDS011;19506;51.040;3.856;2023-05-08T13:03:11;14.65;;;8.57;;
33148;SDS011;19506;51.040;3.856;2023-05-08T13:05:42;13.68;;;8.27;;
33148;SDS011;19506;51.040;3.856;2023-05-08T13:08:08;16.55;;;9.48;;
33148;SDS011;19506;51.040;3.856;2023-05-08T13:10:50;14.50;;;8.50;;
33148;SDS011;19506;51.040;3.856;2023-05-08T13:13:18;14.73;;;9.48;;
33148;SDS011;19506;51.040;3.856;2023-05-08T13:15:45;17.08;;;8.85;;
33148;SDS011;19506;51.040;3.856;2023-05-08T13:18:12;12.30;;;8.48;;
33148;SDS011;19506;51.040;3.856;2023-05-08T13:20:38;16.40;;;8.38;;
33148;SDS011;19506;51.040;3.856;2023-05-08T13:23:04;15.95;;;9.50;;
33148;SDS011;19506;51.040;3.856;2023-05-08T13:25:30;12.18;;;8.75;;
33148;SDS011;19506;51.040;3.856;2023-05-08T13:27:59;12.57;;;8.20;;
33148;SDS011;19506;51.040;3.856;2023-05-08T13:30:25;14.18;;;8.35;;
33148;SDS011;19506;51.040;3.856;2023-05-08T13:32:51;14.18;;;8.45;;
33148;SDS011;19506;51.040;3.856;2023-05-08T13:35:17;12.40;;;8.38;;
33148;SDS011;19506;51.040;3.856;2023-05-08T13:37:43;13.50;;;8.43;;
33148;SDS011;19506;51.040;3.856;2023-05-08T13:40:10;13.07;;;7.93;;
33148;SDS011;19506;51.040;3.856;2023-05-08T13:42:36;12.95;;;8.35;;
33148;SDS011;19506;51.040;3.856;2023-05-08T13:45:05;11.77;;;8.20;;
33148;SDS011;19506;51.040;3.856;2023-05-08T13:47:32;11.48;;;7.97;;
33148;SDS011;19506;51.040;3.856;2023-05-08T13:49:58;12.88;;;8.48;;
33148;SDS011;19506;51.040;3.856;2023-05-08T13:52:24;13.00;;;8.27;;
33148;SDS011;19506;51.040;3.856;2023-05-08T13:54:53;15.68;;;9.02;;
33148;SDS011;19506;51.040;3.856;2023-05-08T13:57:18;13.43;;;7.75;;
33148;SDS011;19506;51.040;3.856;2023-05-08T13:59:44;12.20;;;8.25;;
33148;SDS011;19506;51.040;3.856;2023-05-08T14:02:10;12.52;;;7.72;;
33148;SDS011;19506;51.040;3.856;2023-05-08T14:04:35;13.02;;;7.28;;
33148;SDS011;19506;51.040;3.856;2023-05-08T14:07:01;10.52;;;7.40;;
33148;SDS011;19506;51.040;3.856;2023-05-08T14:09:27;11.82;;;8.18;;
33148;SDS011;19506;51.040;3.856;2023-05-08T14:11:52;9.13;;;6.85;;
33148;SDS011;19506;51.040;3.856;2023-05-08T14:14:18;13.93;;;8.65;;
33148;SDS011;19506;51.040;3.856;2023-05-08T14:16:43;10.27;;;7.20;;
33148;SDS011;19506;51.040;3.856;2023-05-08T14:19:09;9.07;;;7.55;;
33148;SDS011;19506;51.040;3.856;2023-05-08T14:21:35;13.68;;;8.68;;
33148;SDS011;19506;51.040;3.856;2023-05-08T14:24:01;14.55;;;7.00;;
33148;SDS011;19506;51.040;3.856;2023-05-08T14:26:27;12.15;;;8.23;;
33148;SDS011;19506;51.040;3.856;2023-05-08T14:28:52;13.65;;;7.28;;
33148;SDS011;19506;51.040;3.856;2023-05-08T14:31:18;12.77;;;7.40;;
33148;SDS011;19506;51.040;3.856;2023-05-08T14:33:44;12.38;;;7.53;;
33148;SDS011;19506;51.040;3.856;2023-05-08T14:36:09;13.40;;;8.35;;
33148;SDS011;19506;51.040;3.856;2023-05-08T14:38:35;18.77;;;8.20;;
33148;SDS011;19506;51.040;3.856;2023-05-08T14:41:03;17.00;;;8.75;;
33148;SDS011;19506;51.040;3.856;2023-05-08T14:43:29;14.38;;;8.13;;
33148;SDS011;19506;51.040;3.856;2023-05-08T14:45:55;19.10;;;8.13;;
33148;SDS011;19506;51.040;3.856;2023-05-08T14:48:21;19.42;;;9.10;;
33148;SDS011;19506;51.040;3.856;2023-05-08T14:50:48;18.00;;;8.93;;
33148;SDS011;19506;51.040;3.856;2023-05-08T14:53:14;21.25;;;8.88;;
33148;SDS011;19506;51.040;3.856;2023-05-08T14:55:40;11.88;;;8.43;;
33148;SDS011;19506;51.040;3.856;2023-05-08T14:58:06;22.65;;;9.00;;
33148;SDS011;19506;51.040;3.856;2023-05-08T15:00:32;16.58;;;8.63;;
33148;SDS011;19506;51.040;3.856;2023-05-08T15:02:58;12.85;;;8.63;;
33148;SDS011;19506;51.040;3.856;2023-05-08T15:05:26;17.73;;;9.10;;
33148;SDS011;19506;51.040;3.856;2023-05-08T15:07:54;23.50;;;8.90;;
33148;SDS011;19506;51.040;3.856;2023-05-08T15:10:20;22.85;;;9.15;;
33148;SDS011;19506;51.040;3.856;2023-05-08T15:12:46;17.13;;;8.32;;
33148;SDS011;19506;51.040;3.856;2023-05-08T15:15:12;24.13;;;10.93;;
33148;SDS011;19506;51.040;3.856;2023-05-08T15:17:38;19.23;;;9.18;;
33148;SDS011;19506;51.040;3.856;2023-05-08T15:20:05;26.92;;;9.55;;
33148;SDS011;19506;51.040;3.856;2023-05-08T15:22:32;25.13;;;8.82;;
33148;SDS011;19506;51.040;3.856;2023-05-08T15:24:57;29.17;;;10.07;;
33148;SDS011;19506;51.040;3.856;2023-05-08T15:27:26;28.67;;;8.70;;
33148;SDS011;19506;51.040;3.856;2023-05-08T15:29:53;23.95;;;10.30;;
33148;SDS011;19506;51.040;3.856;2023-05-08T15:32:19;28.50;;;9.45;;
33148;SDS011;19506;51.040;3.856;2023-05-08T15:34:45;43.20;;;10.40;;
33148;SDS011;19506;51.040;3.856;2023-05-08T15:37:11;18.02;;;9.77;;
33148;SDS011;19506;51.040;3.856;2023-05-08T15:39:37;38.40;;;11.90;;
33148;SDS011;19506;51.040;3.856;2023-05-08T15:42:03;35.30;;;10.70;;
33148;SDS011;19506;51.040;3.856;2023-05-08T15:44:30;40.08;;;11.35;;
33148;SDS011;19506;51.040;3.856;2023-05-08T15:46:56;32.00;;;12.05;;
33148;SDS011;19506;51.040;3.856;2023-05-08T15:49:22;31.48;;;12.18;;
33148;SDS011;19506;51.040;3.856;2023-05-08T15:51:52;39.97;;;14.70;;
33148;SDS011;19506;51.040;3.856;2023-05-08T15:54:19;49.35;;;17.48;;
33148;SDS011;19506;51.040;3.856;2023-05-08T15:56:45;42.92;;;16.35;;
33148;SDS011;19506;51.040;3.856;2023-05-08T15:59:11;38.05;;;16.98;;
33148;SDS011;19506;51.040;3.856;2023-05-08T16:01:37;40.05;;;19.13;;
33148;SDS011;19506;51.040;3.856;2023-05-08T16:04:05;36.33;;;18.27;;
33148;SDS011;19506;51.040;3.856;2023-05-08T16:06:31;45.10;;;18.95;;
33148;SDS011;19506;51.040;3.856;2023-05-08T16:08:57;46.30;;;23.23;;
33148;SDS011;19506;51.040;3.856;2023-05-08T16:11:24;43.83;;;21.88;;
33148;SDS011;19506;51.040;3.856;2023-05-08T16:13:53;44.38;;;21.80;;
33148;SDS011;19506;51.040;3.856;2023-05-08T16:16:19;37.45;;;21.23;;
33148;SDS011;19506;51.040;3.856;2023-05-08T16:18:44;44.92;;;20.88;;
33148;SDS011;19506;51.040;3.856;2023-05-08T16:21:10;42.25;;;20.08;;
33148;SDS011;19506;51.040;3.856;2023-05-08T16:23:37;40.75;;;18.52;;
33148;SDS011;19506;51.040;3.856;2023-05-08T16:26:02;47.20;;;19.70;;
33148;SDS011;19506;51.040;3.856;2023-05-08T16:28:28;43.70;;;18.55;;
33148;SDS011;19506;51.040;3.856;2023-05-08T16:30:54;34.58;;;17.95;;
33148;SDS011;19506;51.040;3.856;2023-05-08T16:33:20;40.47;;;18.85;;
33148;SDS011;19506;51.040;3.856;2023-05-08T16:35:45;38.67;;;18.23;;
33148;SDS011;19506;51.040;3.856;2023-05-08T16:38:11;37.25;;;18.10;;
33148;SDS011;19506;51.040;3.856;2023-05-08T16:40:37;35.80;;;19.38;;
33148;SDS011;19506;51.040;3.856;2023-05-08T16:43:02;26.63;;;15.70;;
33148;SDS011;19506;51.040;3.856;2023-05-08T16:45:28;31.80;;;17.85;;
33148;SDS011;19506;51.040;3.856;2023-05-08T16:47:54;34.95;;;16.60;;
33148;SDS011;19506;51.040;3.856;2023-05-08T16:50:20;36.47;;;16.25;;
33148;SDS011;19506;51.040;3.856;2023-05-08T16:52:45;38.45;;;17.25;;
33148;SDS011;19506;51.040;3.856;2023-05-08T16:55:11;29.15;;;15.82;;
33148;SDS011;19506;51.040;3.856;2023-05-08T16:57:37;27.88;;;16.23;;
33148;SDS011;19506;51.040;3.856;2023-05-08T17:00:03;30.38;;;15.80;;
33148;SDS011;19506;51.040;3.856;2023-05-08T17:02:29;35.72;;;16.38;;
33148;SDS011;19506;51.040;3.856;2023-05-08T17:04:55;29.23;;;15.25;;
33148;SDS011;19506;51.040;3.856;2023-05-08T17:07:21;23.38;;;14.10;;
33148;SDS011;19506;51.040;3.856;2023-05-08T17:09:47;34.13;;;14.63;;
33148;SDS011;19506;51.040;3.856;2023-05-08T17:12:17;28.98;;;13.75;;
33148;SDS011;19506;51.040;3.856;2023-05-08T17:14:43;27.08;;;13.10;;
33148;SDS011;19506;51.040;3.856;2023-05-08T17:17:08;23.80;;;14.05;;
33148;SDS011;19506;51.040;3.856;2023-05-08T17:19:34;21.52;;;12.68;;
33148;SDS011;19506;51.040;3.856;2023-05-08T17:22:00;20.38;;;12.85;;
33148;SDS011;19506;51.040;3.856;2023-05-08T17:24:26;24.95;;;13.52;;
33148;SDS011;19506;51.040;3.856;2023-05-08T17:26:53;24.95;;;12.55;;
33148;SDS011;19506;51.040;3.856;2023-05-08T17:29:19;18.50;;;11.70;;
33148;SDS011;19506;51.040;3.856;2023-05-08T17:31:45;22.13;;;11.88;;
33148;SDS011;19506;51.040;3.856;2023-05-08T17:34:11;21.33;;;11.50;;
33148;SDS011;19506;51.040;3.856;2023-05-08T17:36:37;21.02;;;11.48;;
33148;SDS011;19506;51.040;3.856;2023-05-08T17:39:02;20.92;;;11.45;;
33148;SDS011;19506;51.040;3.856;2023-05-08T17:41:28;18.10;;;10.70;;
33148;SDS011;19506;51.040;3.856;2023-05-08T17:43:54;21.65;;;12.13;;
33148;SDS011;19506;51.040;3.856;2023-05-08T17:46:19;18.10;;;10.45;;
33148;SDS011;19506;51.040;3.856;2023-05-08T17:48:45;21.15;;;10.77;;
33148;SDS011;19506;51.040;3.856;2023-05-08T17:51:11;19.67;;;9.65;;
33148;SDS011;19506;51.040;3.856;2023-05-08T17:53:37;15.75;;;10.00;;
33148;SDS011;19506;51.040;3.856;2023-05-08T17:56:04;20.63;;;10.68;;
33148;SDS011;19506;51.040;3.856;2023-05-08T17:58:30;18.50;;;10.48;;
33148;SDS011;19506;51.040;3.856;2023-05-08T18:00:56;22.38;;;10.38;;
33148;SDS011;19506;51.040;3.856;2023-05-08T18:03:22;20.55;;;9.25;;
33148;SDS011;19506;51.040;3.856;2023-05-08T18:05:48;24.25;;;9.73;;
33148;SDS011;19506;51.040;3.856;2023-05-08T18:08:15;19.52;;;9.13;;
33148;SDS011;19506;51.040;3.856;2023-05-08T18:10:41;21.13;;;9.73;;
33148;SDS011;19506;51.040;3.856;2023-05-08T18:13:06;19.58;;;10.40;;
33148;SDS011;19506;51.040;3.856;2023-05-08T18:15:32;21.45;;;9.02;;
33148;SDS011;19506;51.040;3.856;2023-05-08T18:18:00;14.80;;;8.63;;
33148;SDS011;19506;51.040;3.856;2023-05-08T18:20:26;28.98;;;9.32;;
33148;SDS011;19506;51.040;3.856;2023-05-08T18:22:52;18.58;;;8.80;;
33148;SDS011;19506;51.040;3.856;2023-05-08T18:25:20;15.13;;;8.43;;
33148;SDS011;19506;51.040;3.856;2023-05-08T18:27:47;15.35;;;8.10;;
33148;SDS011;19506;51.040;3.856;2023-05-08T18:30:14;17.00;;;8.43;;
33148;SDS011;19506;51.040;3.856;2023-05-08T18:32:42;15.10;;;7.93;;
33148;SDS011;19506;51.040;3.856;2023-05-08T18:35:09;19.48;;;8.85;;
33148;SDS011;19506;51.040;3.856;2023-05-08T18:37:37;15.20;;;8.23;;
33148;SDS011;19506;51.040;3.856;2023-05-08T18:40:03;19.95;;;8.65;;
33148;SDS011;19506;51.040;3.856;2023-05-08T18:42:29;23.02;;;8.23;;
33148;SDS011;19506;51.040;3.856;2023-05-08T18:44:57;16.60;;;7.85;;
33148;SDS011;19506;51.040;3.856;2023-05-08T18:47:24;18.98;;;8.15;;
33148;SDS011;19506;51.040;3.856;2023-05-08T18:49:50;15.63;;;7.78;;
33148;SDS011;19506;51.040;3.856;2023-05-08T18:52:20;19.55;;;8.13;;
33148;SDS011;19506;51.040;3.856;2023-05-08T18:54:46;24.85;;;7.57;;
33148;SDS011;19506;51.040;3.856;2023-05-08T18:57:14;13.30;;;6.65;;
33148;SDS011;19506;51.040;3.856;2023-05-08T18:59:40;18.25;;;7.85;;
33148;SDS011;19506;51.040;3.856;2023-05-08T19:02:06;12.85;;;6.68;;
33148;SDS011;19506;51.040;3.856;2023-05-08T19:04:33;10.88;;;6.95;;
33148;SDS011;19506;51.040;3.856;2023-05-08T19:06:58;11.73;;;6.75;;
33148;SDS011;19506;51.040;3.856;2023-05-08T19:09:24;23.55;;;8.65;;
33148;SDS011;19506;51.040;3.856;2023-05-08T19:11:50;16.35;;;7.25;;
33148;SDS011;19506;51.040;3.856;2023-05-08T19:14:16;17.85;;;7.38;;
33148;SDS011;19506;51.040;3.856;2023-05-08T19:16:44;16.25;;;7.57;;
33148;SDS011;19506;51.040;3.856;2023-05-08T19:19:12;13.80;;;7.55;;
33148;SDS011;19506;51.040;3.856;2023-05-08T19:21:38;19.75;;;7.28;;
33148;SDS011;19506;51.040;3.856;2023-05-08T19:24:04;14.45;;;6.32;;
33148;SDS011;19506;51.040;3.856;2023-05-08T19:26:30;16.73;;;8.10;;
33148;SDS011;19506;51.040;3.856;2023-05-08T19:28:55;12.25;;;6.28;;
33148;SDS011;19506;51.040;3.856;2023-05-08T19:31:21;14.60;;;7.20;;
33148;SDS011;19506;51.040;3.856;2023-05-08T19:33:47;12.57;;;7.03;;
33148;SDS011;19506;51.040;3.856;2023-05-08T19:36:13;14.40;;;6.40;;
33148;SDS011;19506;51.040;3.856;2023-05-08T19:38:39;17.55;;;6.25;;
33148;SDS011;19506;51.040;3.856;2023-05-08T19:41:05;22.67;;;6.85;;
33148;SDS011;19506;51.040;3.856;2023-05-08T19:43:31;11.20;;;6.15;;
33148;SDS011;19506;51.040;3.856;2023-05-08T19:45:56;15.13;;;5.97;;
33148;SDS011;19506;51.040;3.856;2023-05-08T19:48:22;21.88;;;6.00;;
33148;SDS011;19506;51.040;3.856;2023-05-08T19:50:51;14.15;;;6.70;;
33148;SDS011;19506;51.040;3.856;2023-05-08T19:53:17;13.27;;;5.63;;
33148;SDS011;19506;51.040;3.856;2023-05-08T19:55:42;16.10;;;6.07;;
33148;SDS011;19506;51.040;3.856;2023-05-08T19:58:08;10.40;;;5.70;;
33148;SDS011;19506;51.040;3.856;2023-05-08T20:00:34;11.43;;;5.82;;
33148;SDS011;19506;51.040;3.856;2023-05-08T20:03:00;13.25;;;5.85;;
33148;SDS011;19506;51.040;3.856;2023-05-08T20:05:25;15.77;;;6.20;;
33148;SDS011;19506;51.040;3.856;2023-05-08T20:07:51;12.40;;;5.93;;
33148;SDS011;19506;51.040;3.856;2023-05-08T20:10:21;11.23;;;5.78;;
33148;SDS011;19506;51.040;3.856;2023-05-08T20:12:47;17.00;;;6.32;;
33148;SDS011;19506;51.040;3.856;2023-05-08T20:15:12;14.75;;;5.70;;
33148;SDS011;19506;51.040;3.856;2023-05-08T20:17:38;12.70;;;5.85;;
33148;SDS011;19506;51.040;3.856;2023-05-08T20:20:04;24.15;;;6.15;;
33148;SDS011;19506;51.040;3.856;2023-05-08T20:22:30;12.18;;;6.28;;
33148;SDS011;19506;51.040;3.856;2023-05-08T20:24:56;12.02;;;5.72;;
33148;SDS011;19506;51.040;3.856;2023-05-08T20:27:22;11.20;;;5.45;;
33148;SDS011;19506;51.040;3.856;2023-05-08T20:29:47;23.10;;;6.00;;
33148;SDS011;19506;51.040;3.856;2023-05-08T20:32:13;12.43;;;5.38;;
33148;SDS011;19506;51.040;3.856;2023-05-08T20:34:40;16.52;;;5.65;;
33148;SDS011;19506;51.040;3.856;2023-05-08T20:37:05;19.45;;;6.43;;
33148;SDS011;19506;51.040;3.856;2023-05-08T20:39:31;18.75;;;5.80;;
33148;SDS011;19506;51.040;3.856;2023-05-08T20:41:57;18.23;;;5.20;;
33148;SDS011;19506;51.040;3.856;2023-05-08T20:44:23;13.73;;;4.40;;
33148;SDS011;19506;51.040;3.856;2023-05-08T20:46:48;20.73;;;5.50;;
33148;SDS011;19506;51.040;3.856;2023-05-08T20:49:15;14.13;;;5.22;;
33148;SDS011;19506;51.040;3.856;2023-05-08T20:51:41;9.23;;;4.53;;
33148;SDS011;19506;51.040;3.856;2023-05-08T20:54:09;6.45;;;4.68;;
33148;SDS011;19506;51.040;3.856;2023-05-08T20:56:35;11.85;;;5.53;;
33148;SDS011;19506;51.040;3.856;2023-05-08T20:59:01;21.38;;;5.97;;
33148;SDS011;19506;51.040;3.856;2023-05-08T21:01:27;19.27;;;5.03;;
33148;SDS011;19506;51.040;3.856;2023-05-08T21:03:53;20.08;;;5.00;;
33148;SDS011;19506;51.040;3.856;2023-05-08T21:06:19;14.10;;;5.30;;
33148;SDS011;19506;51.040;3.856;2023-05-08T21:08:44;22.40;;;5.32;;
33148;SDS011;19506;51.040;3.856;2023-05-08T21:11:10;10.55;;;5.47;;
33148;SDS011;19506;51.040;3.856;2023-05-08T21:13:36;10.50;;;4.22;;
33148;SDS011;19506;51.040;3.856;2023-05-08T21:16:02;18.05;;;5.28;;
33148;SDS011;19506;51.040;3.856;2023-05-08T21:18:29;13.60;;;5.10;;
33148;SDS011;19506;51.040;3.856;2023-05-08T21:20:55;15.57;;;5.05;;
33148;SDS011;19506;51.040;3.856;2023-05-08T21:23:21;18.90;;;5.65;;
33148;SDS011;19506;51.040;3.856;2023-05-08T21:25:46;15.60;;;4.80;;
33148;SDS011;19506;51.040;3.856;2023-05-08T21:28:13;14.02;;;4.82;;
33148;SDS011;19506;51.040;3.856;2023-05-08T21:30:39;9.75;;;4.80;;
